Time;durP1;ratioP1;P1;durP2;ratioP2;P2;SDS_P1;SDS_P2;PMS_P1;PMS_P2;Temp;Humidity;BMP_temperature;BMP_pressure;BME280_temperature;BME280_humidity;BME280_pressure;Samples;Min_cycle;Max_cycle;Signal;HPM_P1;HPM_P2
2022/07/12 00:00:29;;;;;;;3.90;1.20;;;;;;;20.90;58.77;101308.59;5010461;28;20210;-65
2022/07/12 00:02:57;;;;;;;3.50;1.20;;;;;;;20.92;58.70;101305.72;5015287;28;20624;-65
2022/07/12 00:05:25;;;;;;;3.43;1.20;;;;;;;20.91;58.84;101304.03;5026016;28;20212;-65
2022/07/12 00:07:54;;;;;;;3.57;1.30;;;;;;;20.93;58.79;101307.38;5013107;28;20220;-65
2022/07/12 00:10:22;;;;;;;2.80;1.33;;;;;;;20.91;58.49;101304.88;5016678;28;20808;-65
2022/07/12 00:12:50;;;;;;;1.67;1.10;;;;;;;20.83;59.09;101301.50;5009915;28;21009;-65
2022/07/12 00:15:18;;;;;;;1.90;1.30;;;;;;;20.85;59.08;101302.94;5010154;28;20205;-65
2022/07/12 00:17:45;;;;;;;2.77;1.33;;;;;;;20.81;58.70;101303.53;5010597;28;20651;-65
2022/07/12 00:20:13;;;;;;;1.87;1.30;;;;;;;20.77;59.04;101307.63;5010206;28;20197;-65
2022/07/12 00:22:41;;;;;;;4.00;1.50;;;;;;;20.77;58.96;101302.25;5018049;28;20304;-66
2022/07/12 00:25:10;;;;;;;2.57;1.27;;;;;;;20.73;59.23;101301.00;5023165;28;20851;-65
2022/07/12 00:27:38;;;;;;;3.23;1.00;;;;;;;20.63;59.34;101299.47;5017803;28;20245;-66
2022/07/12 00:30:07;;;;;;;3.33;1.13;;;;;;;20.62;59.43;101299.63;5013934;28;20308;-65
2022/07/12 00:32:35;;;;;;;2.20;1.10;;;;;;;20.59;59.57;101303.53;5013385;28;20312;-65
2022/07/12 00:35:04;;;;;;;3.13;1.33;;;;;;;20.56;59.51;101295.88;5014114;28;20692;-65
2022/07/12 00:37:31;;;;;;;3.03;1.20;;;;;;;20.57;59.59;101305.63;5014131;28;20301;-65
2022/07/12 00:39:59;;;;;;;1.20;0.90;;;;;;;20.56;59.59;101295.03;5013488;28;20205;-65
2022/07/12 00:42:28;;;;;;;2.33;1.33;;;;;;;20.52;59.95;101297.28;5015846;28;20210;-65
2022/07/12 00:44:56;;;;;;;2.00;1.20;;;;;;;20.50;59.96;101296.63;5014054;28;20213;-65
2022/07/12 00:47:36;;;;;;;2.40;1.40;;;;;;;20.49;60.02;101292.25;5013688;28;20205;-65
2022/07/12 00:50:06;;;;;;;3.80;1.10;;;;;;;20.43;59.85;101290.34;5010681;28;20565;-65
2022/07/12 00:52:36;;;;;;;6.17;1.20;;;;;;;20.34;60.15;101287.94;5022746;28;20235;-65
2022/07/12 00:55:04;;;;;;;3.63;1.33;;;;;;;20.32;60.52;101288.13;5005216;28;20210;-65
2022/07/12 00:57:34;;;;;;;3.60;1.40;;;;;;;20.36;60.30;101286.75;5015066;28;20275;-65
2022/07/12 01:00:02;;;;;;;2.40;1.43;;;;;;;20.32;60.12;101281.94;5032908;28;20613;-65
2022/07/12 01:02:30;;;;;;;3.30;1.40;;;;;;;20.31;60.55;101286.47;5026307;28;20308;-65
2022/07/12 01:04:59;;;;;;;1.70;1.13;;;;;;;20.28;60.53;101281.47;5033309;28;20205;-65
2022/07/12 01:07:27;;;;;;;3.50;1.27;;;;;;;20.28;60.48;101281.47;5033406;28;20240;-65
2022/07/12 01:09:55;;;;;;;2.87;1.30;;;;;;;20.29;60.29;101283.97;5033296;28;20633;-66
2022/07/12 01:12:24;;;;;;;2.53;1.13;;;;;;;20.26;60.52;101280.81;5032208;28;20231;-65
2022/07/12 01:14:54;;;;;;;1.63;1.03;;;;;;;20.23;60.51;101291.97;5033083;28;20205;-65
2022/07/12 01:17:25;;;;;;;1.33;1.00;;;;;;;20.19;60.89;101290.69;5033179;28;20574;-65
2022/07/12 01:19:55;;;;;;;2.70;1.10;;;;;;;20.17;61.04;101290.03;5032545;28;20212;-66
2022/07/12 01:22:27;;;;;;;2.50;1.10;;;;;;;20.16;60.98;101288.38;5028902;28;20645;-65
2022/07/12 01:24:56;;;;;;;2.23;1.13;;;;;;;20.14;60.70;101296.63;5015096;28;20618;-66
2022/07/12 01:27:24;;;;;;;2.27;1.17;;;;;;;20.12;60.91;101287.94;5024328;28;20212;-66
2022/07/12 01:29:52;;;;;;;1.43;0.97;;;;;;;20.09;60.76;101292.84;5027874;28;20300;-65
2022/07/12 01:32:26;;;;;;;1.77;1.23;;;;;;;20.03;61.38;101282.84;5032121;28;21365;-65
2022/07/12 01:34:55;;;;;;;1.47;1.10;;;;;;;19.99;61.63;101284.25;5035430;28;20212;-65
2022/07/12 01:37:24;;;;;;;3.63;1.50;;;;;;;20.00;61.47;101278.69;5031573;28;20213;-65
2022/07/12 01:39:54;;;;;;;4.47;1.20;;;;;;;20.00;61.53;101284.06;5030684;28;20219;-65
2022/07/12 01:42:24;;;;;;;2.37;1.20;;;;;;;19.95;61.92;101274.91;5028110;28;20240;-65
2022/07/12 01:44:53;;;;;;;3.67;1.00;;;;;;;19.98;61.57;101279.88;5032841;28;20688;-65
2022/07/12 01:47:23;;;;;;;1.50;1.10;;;;;;;19.97;61.66;101281.75;5030177;28;20212;-65
2022/07/12 01:49:50;;;;;;;1.93;1.30;;;;;;;19.97;61.31;101283.59;5032193;28;20219;-65
2022/07/12 01:52:19;;;;;;;1.77;1.13;;;;;;;19.91;61.73;101286.03;5031656;28;20316;-66
2022/07/12 01:54:48;;;;;;;6.93;1.30;;;;;;;19.85;61.88;101276.03;5031523;28;20213;-65
2022/07/12 01:57:16;;;;;;;2.13;1.10;;;;;;;19.88;62.05;101280.19;5029644;28;20233;-65
2022/07/12 01:59:45;;;;;;;1.73;1.20;;;;;;;19.89;61.95;101280.00;5032674;28;20211;-65
2022/07/12 02:02:13;;;;;;;2.90;1.20;;;;;;;19.85;61.90;101283.28;5031494;28;20243;-65
2022/07/12 02:04:41;;;;;;;1.97;1.23;;;;;;;19.82;61.99;101284.47;5032165;28;20458;-65
2022/07/12 02:07:08;;;;;;;4.00;1.13;;;;;;;19.80;62.02;101286.50;5032420;28;20217;-65
2022/07/12 02:09:36;;;;;;;2.47;1.30;;;;;;;19.80;62.00;101285.69;5029117;28;20209;-65
2022/07/12 02:12:05;;;;;;;2.73;1.40;;;;;;;19.83;62.00;101291.53;5023839;28;20224;-65
2022/07/12 02:14:32;;;;;;;1.97;1.30;;;;;;;19.81;62.20;101285.50;5031014;28;20219;-65
2022/07/12 02:17:01;;;;;;;1.93;1.20;;;;;;;19.78;62.29;101295.81;5031638;28;20201;-65
2022/07/12 02:19:29;;;;;;;4.70;1.30;;;;;;;19.69;62.49;101292.41;5031319;28;20212;-65
2022/07/12 02:21:57;;;;;;;3.40;1.43;;;;;;;19.68;62.52;101290.72;5031847;28;20201;-65
2022/07/12 02:24:25;;;;;;;2.93;1.27;;;;;;;19.71;62.76;101290.34;5027387;28;20207;-65
2022/07/12 02:26:52;;;;;;;2.53;1.23;;;;;;;19.67;62.63;101283.69;5031286;28;20219;-65
2022/07/12 02:29:20;;;;;;;4.57;1.40;;;;;;;19.62;63.06;101286.06;5031504;28;20657;-65
2022/07/12 02:31:48;;;;;;;2.60;1.77;;;;;;;19.63;62.88;101285.06;5031680;28;20264;-65
2022/07/12 02:34:17;;;;;;;2.50;1.70;;;;;;;19.62;63.22;101290.63;5029260;28;20204;-66
2022/07/12 02:36:45;;;;;;;3.23;1.37;;;;;;;19.62;62.92;101291.47;5031824;28;20211;-66
2022/07/12 02:39:12;;;;;;;3.37;1.47;;;;;;;19.63;63.26;101303.91;5029770;28;20576;-65
2022/07/12 02:41:40;;;;;;;2.80;1.60;;;;;;;19.63;62.87;101309.28;5018128;28;20219;-65
2022/07/12 02:44:08;;;;;;;3.10;1.70;;;;;;;19.62;62.88;101307.59;5025825;28;20208;-65
2022/07/12 02:46:36;;;;;;;2.53;1.53;;;;;;;19.63;63.32;101298.50;5031146;28;20304;-65
2022/07/12 02:49:04;;;;;;;3.10;1.60;;;;;;;19.62;63.45;101302.22;5021007;28;20205;-65
2022/07/12 02:51:33;;;;;;;2.40;1.10;;;;;;;19.61;63.47;101299.75;5025044;28;20303;-65
2022/07/12 02:54:00;;;;;;;2.33;1.20;;;;;;;19.57;63.64;101310.03;5016902;28;20308;-70
2022/07/12 02:56:28;;;;;;;2.03;1.03;;;;;;;19.58;63.33;101309.00;5031425;28;20327;-66
2022/07/12 02:58:56;;;;;;;1.80;1.03;;;;;;;19.54;63.58;101313.09;5026020;28;20217;-65
2022/07/12 03:01:24;;;;;;;2.60;1.43;;;;;;;19.50;63.78;101309.94;5017494;28;20209;-65
2022/07/12 03:03:51;;;;;;;2.30;1.40;;;;;;;19.52;63.65;101317.84;5030453;28;20661;-65
2022/07/12 03:06:19;;;;;;;2.23;1.43;;;;;;;19.50;64.06;101309.94;5030635;28;20208;-66
2022/07/12 03:08:48;;;;;;;3.00;1.90;;;;;;;19.48;64.23;101317.38;5030995;28;20204;-67
2022/07/12 03:11:16;;;;;;;2.67;1.30;;;;;;;19.46;63.94;101311.28;5030999;28;20295;-65
2022/07/12 03:13:44;;;;;;;3.43;1.50;;;;;;;19.48;64.07;101308.47;5026951;28;20666;-66
2022/07/12 03:16:11;;;;;;;2.53;1.60;;;;;;;19.41;64.52;101315.56;5026923;28;20216;-67
2022/07/12 03:18:40;;;;;;;2.73;1.60;;;;;;;19.43;64.37;101322.44;5030418;28;20775;-65
2022/07/12 03:21:08;;;;;;;1.60;1.20;;;;;;;19.41;64.66;101315.56;5010506;28;20205;-65
2022/07/12 03:23:36;;;;;;;6.20;1.63;;;;;;;19.46;64.56;101323.91;5024236;28;20298;-66
2022/07/12 03:26:07;;;;;;;3.00;1.30;;;;;;;19.48;64.22;101328.13;5028407;28;20212;-66
2022/07/12 03:28:35;;;;;;;3.00;2.07;;;;;;;19.41;64.67;101320.94;5030761;28;20594;-65
2022/07/12 03:31:03;;;;;;;3.40;2.10;;;;;;;19.37;64.81;101330.41;5030600;28;20205;-65
2022/07/12 03:33:30;;;;;;;2.80;2.00;;;;;;;19.35;64.85;101335.16;5029985;28;20268;-65
2022/07/12 03:36:00;;;;;;;3.73;1.40;;;;;;;19.34;64.84;101333.47;5030602;28;20630;-65
2022/07/12 03:38:28;;;;;;;2.97;1.60;;;;;;;19.32;65.07;101338.19;5022353;28;20244;-66
2022/07/12 03:40:56;;;;;;;4.73;1.57;;;;;;;19.29;64.87;101338.56;5030247;28;20760;-66
2022/07/12 03:43:25;;;;;;;2.50;1.67;;;;;;;19.30;64.83;101333.00;5023792;28;20284;-66
2022/07/12 03:45:53;;;;;;;3.10;1.60;;;;;;;19.26;65.39;101333.56;5030672;28;20211;-65
2022/07/12 03:48:20;;;;;;;4.57;1.77;;;;;;;19.24;65.61;101336.44;5027012;28;20830;-65
2022/07/12 03:50:49;;;;;;;2.83;1.70;;;;;;;19.30;65.00;101332.16;5030999;28;20561;-65
2022/07/12 03:53:17;;;;;;;2.63;1.40;;;;;;;19.30;65.31;101332.16;5016386;28;20291;-65
2022/07/12 03:55:44;;;;;;;4.97;1.80;;;;;;;19.33;65.02;101335.31;5026807;28;20321;-65
2022/07/12 03:58:12;;;;;;;3.43;1.70;;;;;;;19.33;65.10;101334.50;5030270;28;20812;-66
2022/07/12 04:00:42;;;;;;;3.30;1.90;;;;;;;19.30;65.58;101334.84;5032869;28;20344;-66
2022/07/12 04:03:11;;;;;;;4.03;1.60;;;;;;;19.29;65.31;101333.19;5034165;28;20731;-65
2022/07/12 04:05:39;;;;;;;3.03;2.00;;;;;;;19.27;65.36;101327.97;5034522;28;20208;-65
2022/07/12 04:08:06;;;;;;;3.27;2.40;;;;;;;19.26;65.62;101338.94;5034493;28;20216;-66
2022/07/12 04:10:34;;;;;;;3.57;2.20;;;;;;;19.26;65.88;101334.38;5030292;28;20299;-66
2022/07/12 04:13:02;;;;;;;3.03;1.80;;;;;;;19.28;65.45;101326.97;5029550;28;20242;-65
2022/07/12 04:15:29;;;;;;;3.27;1.50;;;;;;;19.31;65.42;101325.75;5029775;28;20210;-66
2022/07/12 04:17:59;;;;;;;3.63;1.43;;;;;;;19.35;65.72;101325.19;5027118;28;20217;-66
2022/07/12 04:20:27;;;;;;;2.93;1.53;;;;;;;19.38;65.73;101324.00;5033015;28;20212;-65
2022/07/12 04:22:55;;;;;;;3.00;1.90;;;;;;;19.38;65.61;101329.38;5033444;28;20212;-65
2022/07/12 04:25:25;;;;;;;4.80;1.80;;;;;;;19.42;65.80;101322.63;5033582;28;20247;-66
2022/07/12 04:27:55;;;;;;;4.83;2.00;;;;;;;19.43;65.90;101335.06;5033751;28;20213;-65
2022/07/12 04:30:23;;;;;;;2.90;1.73;;;;;;;19.44;65.94;101332.16;5034021;28;20216;-65
2022/07/12 04:32:51;;;;;;;3.40;2.13;;;;;;;19.50;65.35;101322.56;5032644;28;20240;-65
2022/07/12 04:35:20;;;;;;;2.83;1.73;;;;;;;19.54;65.22;101323.84;5035523;28;20213;-65
2022/07/12 04:37:48;;;;;;;4.07;2.40;;;;;;;19.61;65.04;101323.97;5033378;28;20201;-65
2022/07/12 04:40:15;;;;;;;4.53;2.20;;;;;;;19.63;65.04;101325.41;5033479;28;20204;-65
2022/07/12 04:42:43;;;;;;;5.47;2.40;;;;;;;19.66;64.97;101325.06;5032718;28;20664;-66
2022/07/12 04:45:11;;;;;;;12.13;3.23;;;;;;;19.68;65.18;101325.72;5029754;28;20684;-65
2022/07/12 04:47:38;;;;;;;4.50;2.07;;;;;;;19.73;65.15;101319.75;5034003;28;20276;-65
2022/07/12 04:50:07;;;;;;;5.67;2.50;;;;;;;19.70;65.07;101322.84;5033542;28;20236;-65
2022/07/12 04:52:36;;;;;;;3.63;2.50;;;;;;;19.72;64.99;101326.16;5032780;28;20215;-65
2022/07/12 04:55:05;;;;;;;5.17;3.10;;;;;;;19.75;64.91;101328.47;5030068;28;20202;-66
2022/07/12 04:57:33;;;;;;;6.33;2.37;;;;;;;19.82;64.54;101329.41;5033025;28;20283;-66
2022/07/12 05:00:01;;;;;;;5.53;2.17;;;;;;;19.87;64.79;101338.59;5033102;28;20251;-66
2022/07/12 05:02:28;;;;;;;4.37;1.93;;;;;;;19.84;64.55;101330.88;5032588;28;20669;-67
2022/07/12 05:04:56;;;;;;;3.43;2.07;;;;;;;19.83;64.35;101331.06;5031967;28;20208;-66
2022/07/12 05:07:24;;;;;;;3.37;2.20;;;;;;;19.86;64.47;101336.09;5030233;28;20205;-66
2022/07/12 05:09:53;;;;;;;4.17;2.50;;;;;;;19.87;64.43;101343.97;5032900;28;20208;-66
2022/07/12 05:12:21;;;;;;;4.07;2.80;;;;;;;19.87;63.89;101348.53;5032091;28;20209;-66
2022/07/12 05:14:48;;;;;;;6.80;2.50;;;;;;;19.90;64.08;101346.28;5033116;28;20338;-66
2022/07/12 05:17:16;;;;;;;4.40;2.20;;;;;;;19.90;64.09;101348.97;5033478;28;20266;-66
2022/07/12 05:19:44;;;;;;;3.53;2.43;;;;;;;19.94;64.56;101362.06;5032623;28;20221;-67
2022/07/12 05:22:12;;;;;;;5.00;3.00;;;;;;;19.97;64.43;101367.88;5032962;28;20213;-66
2022/07/12 05:24:40;;;;;;;9.57;5.13;;;;;;;20.01;64.39;101365.66;5033443;28;20207;-65
2022/07/12 05:27:09;;;;;;;5.20;3.10;;;;;;;20.06;64.64;101369.44;5033330;28;20256;-65
2022/07/12 05:29:37;;;;;;;8.73;2.90;;;;;;;20.15;64.07;101372.88;5033525;28;20308;-65
2022/07/12 05:32:05;;;;;;;7.83;2.87;;;;;;;20.20;64.29;101373.16;5031812;28;20229;-65
2022/07/12 05:34:38;;;;;;;5.30;2.80;;;;;;;20.20;64.66;101378.53;5032658;28;20255;-66
2022/07/12 05:37:06;;;;;;;6.50;3.53;;;;;;;20.22;64.43;101374.66;5033044;28;20304;-66
2022/07/12 05:39:34;;;;;;;10.77;4.47;;;;;;;20.29;64.73;101385.47;5032229;28;20225;-66
2022/07/12 05:42:01;;;;;;;8.93;3.27;;;;;;;20.32;64.57;101387.78;5033733;28;20312;-64
2022/07/12 05:44:31;;;;;;;6.97;3.37;;;;;;;20.37;64.50;101396.19;5032012;28;20631;-64
2022/07/12 05:46:58;;;;;;;5.70;3.17;;;;;;;20.43;64.13;101387.31;5032863;28;20204;-64
2022/07/12 05:49:26;;;;;;;9.87;3.60;;;;;;;20.44;64.09;101391.69;5032758;28;20235;-65
2022/07/12 05:54:39;;;;;;;8.93;4.70;;;;;;;20.55;63.87;101398.44;5032448;28;20220;-65
2022/07/12 05:57:07;;;;;;;7.77;3.37;;;;;;;20.62;63.61;101400.19;5012598;28;20417;-65
2022/07/12 05:59:36;;;;;;;7.07;4.13;;;;;;;20.69;63.93;101404.81;5028820;28;20205;-64
2022/07/12 06:02:05;;;;;;;7.33;4.10;;;;;;;20.74;63.92;101410.47;5032006;28;20251;-66
2022/07/12 06:04:33;;;;;;;10.97;3.70;;;;;;;20.79;63.43;101408.84;5031878;28;20228;-65
2022/07/12 06:07:00;;;;;;;5.90;3.20;;;;;;;20.80;63.60;101407.00;5027687;28;20197;-65
2022/07/12 06:09:28;;;;;;;9.73;3.10;;;;;;;20.85;63.70;101413.47;5031751;28;20642;-64
2022/07/12 06:11:58;;;;;;;9.67;3.30;;;;;;;20.94;63.15;101416.88;5032181;28;20216;-65
2022/07/12 06:14:26;;;;;;;6.33;2.20;;;;;;;21.00;63.14;101416.94;5028181;28;20229;-65
2022/07/12 06:16:55;;;;;;;6.30;2.87;;;;;;;21.07;63.13;101417.00;5031743;28;20559;-65
2022/07/12 06:19:25;;;;;;;5.37;2.33;;;;;;;21.11;63.06;101418.25;5031670;28;20322;-65
2022/07/12 06:21:52;;;;;;;5.20;2.20;;;;;;;21.18;62.57;101413.81;5031814;28;20211;-65
2022/07/12 06:24:20;;;;;;;9.70;2.47;;;;;;;21.23;61.95;101416.75;5031009;28;20200;-65
2022/07/12 06:26:48;;;;;;;7.27;2.10;;;;;;;21.29;62.71;101423.22;5030614;28;20216;-65
2022/07/12 06:29:16;;;;;;;5.27;2.37;;;;;;;21.32;62.54;101418.28;5031523;28;20220;-65
2022/07/12 06:31:44;;;;;;;5.20;2.67;;;;;;;21.35;62.97;101426.00;5031322;28;20239;-65
2022/07/12 06:34:13;;;;;;;7.70;3.23;;;;;;;21.41;62.32;101435.16;5030865;28;20239;-65
2022/07/12 06:36:43;;;;;;;4.77;2.87;;;;;;;21.45;62.85;101425.66;5031019;28;20236;-65
2022/07/12 06:39:11;;;;;;;9.47;3.10;;;;;;;21.46;62.77;101427.31;5027453;28;20759;-65
2022/07/12 06:41:39;;;;;;;9.10;2.70;;;;;;;21.49;62.26;101426.09;5031533;28;20295;-65
2022/07/12 06:44:07;;;;;;;7.13;2.90;;;;;;;21.54;62.37;101437.13;5030539;28;20219;-65
2022/07/12 06:46:35;;;;;;;4.30;2.63;;;;;;;21.59;61.95;101432.81;5031589;28;20642;-65
2022/07/12 06:49:03;;;;;;;7.97;2.53;;;;;;;21.66;62.07;101440.94;5031436;28;20263;-65
2022/07/12 06:51:32;;;;;;;6.93;2.90;;;;;;;21.73;61.70;101436.41;5031377;28;20250;-66
2022/07/12 06:53:59;;;;;;;6.07;2.80;;;;;;;21.76;61.68;101455.75;5030966;28;20802;-66
2022/07/12 06:56:27;;;;;;;11.37;2.73;;;;;;;21.81;61.65;101452.50;5031329;28;20327;-65
2022/07/12 06:58:55;;;;;;;5.53;2.57;;;;;;;21.85;61.24;101452.91;5031352;28;20646;-66
2022/07/12 07:01:23;;;;;;;8.17;3.20;;;;;;;21.88;61.14;101458.75;5030222;28;21019;-65
2022/07/12 07:03:51;;;;;;;3.37;2.30;;;;;;;21.93;62.02;101453.59;5030556;28;20201;-65
2022/07/12 07:06:20;;;;;;;7.97;2.90;;;;;;;21.95;61.65;101456.09;5031102;28;20211;-65
2022/07/12 07:08:49;;;;;;;5.60;3.10;;;;;;;21.97;61.07;101457.59;5031445;28;20208;-65
2022/07/12 07:11:17;;;;;;;4.50;2.30;;;;;;;21.97;60.66;101452.19;5027340;28;20243;-66
2022/07/12 07:13:44;;;;;;;4.50;3.03;;;;;;;22.03;60.79;101459.50;5030762;28;20215;-65
2022/07/12 07:16:20;;;;;;;3.90;2.40;;;;;;;22.07;60.61;101452.69;5029786;28;20242;-65
2022/07/12 07:18:47;;;;;;;3.30;2.30;;;;;;;22.14;60.50;101450.84;5028159;28;20209;-65
2022/07/12 07:21:15;;;;;;;3.37;2.40;;;;;;;22.15;60.03;101448.97;5030846;28;20205;-66
2022/07/12 07:23:43;;;;;;;4.10;2.30;;;;;;;22.19;60.34;101452.91;5029229;28;20686;-65
2022/07/12 07:26:12;;;;;;;5.37;2.30;;;;;;;22.28;59.70;101446.31;5030478;28;20213;-65
2022/07/12 07:31:22;;;;;;;4.97;2.43;;;;;;;22.34;59.93;101442.00;5017146;28;20240;-65
2022/07/12 07:33:49;;;;;;;3.57;2.10;;;;;;;22.38;59.06;101440.53;5029329;28;20295;-66
2022/07/12 07:36:17;;;;;;;5.33;2.77;;;;;;;22.46;59.27;101440.34;5016784;28;20291;-65
2022/07/12 07:38:45;;;;;;;3.40;2.03;;;;;;;22.49;58.92;101439.97;5030501;28;20213;-65
2022/07/12 07:41:14;;;;;;;3.33;2.03;;;;;;;22.54;59.07;101442.88;5034629;28;20254;-66
2022/07/12 07:43:42;;;;;;;3.60;2.33;;;;;;;22.59;59.82;101435.00;5038588;28;20214;-65
2022/07/12 07:46:10;;;;;;;4.27;1.93;;;;;;;22.61;58.84;101441.03;5030281;28;20228;-66
2022/07/12 07:48:37;;;;;;;4.53;2.10;;;;;;;22.70;58.23;101447.91;5032023;28;20299;-65
2022/07/12 07:51:05;;;;;;;3.50;2.20;;;;;;;22.72;58.35;101451.25;5030993;28;20201;-65
2022/07/12 07:53:33;;;;;;;3.83;1.90;;;;;;;22.77;58.24;101448.81;5036787;28;20216;-66
2022/07/12 07:56:01;;;;;;;2.97;2.00;;;;;;;22.80;58.20;101448.38;5030448;28;20232;-65
2022/07/12 07:58:30;;;;;;;3.83;1.70;;;;;;;22.82;58.46;101449.03;5030323;28;20263;-65
2022/07/12 08:00:58;;;;;;;4.10;1.70;;;;;;;22.85;57.88;101440.50;5030731;28;20209;-66
2022/07/12 08:03:26;;;;;;;2.57;2.00;;;;;;;22.91;57.58;101433.44;5030093;28;20209;-65
2022/07/12 08:05:57;;;;;;;3.57;1.80;;;;;;;22.96;57.68;101435.50;5030825;28;20212;-65
2022/07/12 08:08:25;;;;;;;5.10;2.10;;;;;;;23.06;57.34;101441.34;5030897;28;20254;-66
2022/07/12 08:11:13;;;;;;;2.67;1.77;;;;;;;23.12;56.92;101437.84;5029994;28;20223;-66
2022/07/12 08:13:42;;;;;;;5.03;2.23;;;;;;;23.21;57.22;101442.00;5016084;28;20296;-66
2022/07/12 08:16:09;;;;;;;5.68;1.50;;;;;;;23.21;56.83;101447.41;5033543;28;20228;-66
2022/07/12 08:18:37;;;;;;;2.75;1.58;;;;;;;23.24;56.60;101434.28;5028396;28;20303;-66
2022/07/12 08:21:06;;;;;;;4.40;1.40;;;;;;;23.28;56.32;101434.72;5029500;28;20713;-66
2022/07/12 08:23:33;;;;;;;2.38;1.38;;;;;;;23.44;55.87;101444.28;5029723;28;20292;-66
2022/07/12 08:26:01;;;;;;;2.67;1.40;;;;;;;23.53;55.49;101443.91;5029843;28;20734;-66
2022/07/12 08:28:29;;;;;;;2.13;1.10;;;;;;;23.66;55.29;101439.53;5032016;28;20207;-66
2022/07/12 08:30:58;;;;;;;3.92;1.10;;;;;;;23.75;54.27;101443.66;5029440;28;20201;-66
2022/07/12 08:33:26;;;;;;;4.57;1.73;;;;;;;23.85;54.01;101444.88;5028967;28;20232;-66
2022/07/12 08:35:54;;;;;;;3.40;1.83;;;;;;;23.95;53.73;101444.44;5029676;28;20333;-66
2022/07/12 08:38:22;;;;;;;1.80;1.23;;;;;;;24.04;53.32;101445.88;5030171;28;20572;-66
2022/07/12 08:40:50;;;;;;;2.72;1.50;;;;;;;24.08;52.29;101436.28;5030100;28;20535;-66
2022/07/12 08:43:17;;;;;;;8.75;1.52;;;;;;;24.15;51.86;101437.09;5029871;28;20205;-66
2022/07/12 08:45:45;;;;;;;4.22;1.70;;;;;;;24.26;51.82;101436.47;5031600;28;20205;-66
2022/07/12 08:48:15;;;;;;;1.67;0.95;;;;;;;24.32;51.25;101449.16;5034247;28;20291;-66
2022/07/12 08:50:43;;;;;;;3.53;1.00;;;;;;;24.42;49.58;101437.84;5034121;28;20558;-66
2022/07/12 08:53:13;;;;;;;1.70;1.02;;;;;;;24.51;49.61;101441.13;5033415;28;20216;-67
2022/07/12 08:55:41;;;;;;;1.65;1.00;;;;;;;24.55;49.18;101443.19;5033999;28;20233;-66
2022/07/12 08:58:18;;;;;;;2.28;1.30;;;;;;;24.68;48.94;101439.59;5033513;28;20299;-67
2022/07/12 09:00:45;;;;;;;1.80;1.23;;;;;;;24.75;49.23;101438.50;5033697;28;20295;-65
2022/07/12 09:03:20;;;;;;;3.25;1.60;;;;;;;24.78;49.16;101441.81;5033251;28;20224;-66
2022/07/12 09:05:51;;;;;;;3.97;1.25;;;;;;;24.90;49.29;101449.03;5033824;28;20197;-66
2022/07/12 09:08:24;;;;;;;3.17;1.45;;;;;;;24.84;49.03;101440.94;5033615;28;20201;-66
2022/07/12 09:10:54;;;;;;;2.47;1.20;;;;;;;24.74;47.48;101442.25;5033555;28;20205;-66
2022/07/12 09:13:49;;;;;;;1.23;0.80;;;;;;;24.66;47.71;101438.97;5032803;28;20740;-66
2022/07/12 09:16:19;;;;;;;2.60;1.70;;;;;;;24.59;47.88;101435.47;5032388;28;20603;-66
2022/07/12 09:18:50;;;;;;;4.38;1.27;;;;;;;24.75;48.05;101426.81;5030651;28;20209;-66
2022/07/12 09:21:25;;;;;;;1.58;1.08;;;;;;;24.90;47.90;101430.03;5033581;28;20247;-65
2022/07/12 09:23:56;;;;;;;5.03;2.10;;;;;;;25.03;47.63;101412.88;5032359;28;20204;-66
2022/07/12 09:26:31;;;;;;;1.75;0.90;;;;;;;25.18;47.66;101426.09;5033472;28;20223;-66
2022/07/12 09:29:06;;;;;;;2.05;0.98;;;;;;;25.33;47.00;101423.91;5030689;28;20208;-66
2022/07/12 09:36:06;;;;;;;0.90;0.70;;;;;;;25.49;46.14;101426.91;5028898;28;20224;-66
2022/07/12 09:37:17;;;;;;;1.13;0.77;;;;;;;25.64;45.80;101423.84;5032453;28;20240;-65
2022/07/12 09:39:46;;;;;;;1.23;0.70;;;;;;;25.66;45.25;101419.03;5033787;28;20227;-65
2022/07/12 09:42:14;;;;;;;3.42;0.82;;;;;;;25.59;45.07;101415.56;5033554;28;20628;-66
2022/07/12 09:44:42;;;;;;;2.15;0.77;;;;;;;25.73;45.16;101418.94;5033031;28;20312;-65
2022/07/12 09:47:12;;;;;;;2.83;0.95;;;;;;;25.75;45.17;101417.69;5034078;28;20295;-65
2022/07/12 09:49:41;;;;;;;4.05;1.30;;;;;;;25.90;44.59;101420.03;5032065;28;20209;-66
2022/07/12 09:52:12;;;;;;;3.63;1.00;;;;;;;26.02;45.22;101420.94;5032359;28;20225;-67
2022/07/12 09:54:42;;;;;;;3.63;1.13;;;;;;;26.11;45.46;101422.28;5032873;28;20205;-66
2022/07/12 09:57:22;;;;;;;2.40;0.88;;;;;;;26.19;44.54;101426.59;5021995;28;20232;-67
2022/07/12 09:59:51;;;;;;;2.80;0.77;;;;;;;26.26;44.90;101424.63;5033177;28;20630;-66
2022/07/12 10:02:22;;;;;;;1.23;0.80;;;;;;;26.30;45.03;101433.97;5031938;28;20295;-66
2022/07/12 10:04:52;;;;;;;3.22;0.90;;;;;;;26.35;44.01;101428.72;5032326;28;20200;-66
2022/07/12 10:07:20;;;;;;;1.20;0.77;;;;;;;26.43;42.70;101424.84;5030707;28;20215;-66
2022/07/12 10:09:51;;;;;;;1.50;0.80;;;;;;;26.48;43.00;101433.94;5030602;28;20205;-66
2022/07/12 10:12:21;;;;;;;3.35;0.93;;;;;;;26.57;43.13;101431.75;5031537;28;20267;-67
2022/07/12 10:14:52;;;;;;;1.73;0.95;;;;;;;26.45;42.56;101434.44;5025446;28;20263;-66
2022/07/12 10:17:23;;;;;;;1.55;0.68;;;;;;;26.50;43.51;101429.13;5032783;28;20225;-66
2022/07/12 10:20:16;;;;;;;1.17;0.77;;;;;;;26.63;42.45;101428.13;5032744;28;20213;-66
2022/07/12 10:22:44;;;;;;;3.78;1.00;;;;;;;26.69;42.96;101426.34;5027491;28;20201;-66
2022/07/12 10:25:34;;;;;;;2.97;0.80;;;;;;;26.75;42.66;101422.69;5031622;28;20209;-66
2022/07/12 10:28:03;;;;;;;2.47;0.95;;;;;;;26.76;41.51;101424.34;5020806;28;20222;-66
2022/07/12 10:30:42;;;;;;;1.58;0.60;;;;;;;26.81;41.77;101414.47;5032428;28;20304;-66
2022/07/12 10:33:17;;;;;;;4.63;0.80;;;;;;;26.95;42.19;101417.81;5031471;28;20228;-67
2022/07/12 10:36:01;;;;;;;3.05;0.90;;;;;;;27.12;42.42;101418.81;5032435;28;20252;-65
2022/07/12 10:38:29;;;;;;;1.90;0.80;;;;;;;27.18;41.90;101420.56;5031713;28;20209;-66
2022/07/12 10:40:57;;;;;;;5.20;1.10;;;;;;;27.34;42.25;101417.19;5032421;28;20240;-66
2022/07/12 10:46:19;;;;;;;5.03;0.80;;;;;;;27.34;40.46;101411.75;5032027;28;20270;-65
2022/07/12 10:48:48;;;;;;;1.35;0.70;;;;;;;27.35;41.14;101407.13;5031924;28;20215;-65
2022/07/12 10:51:19;;;;;;;2.92;0.60;;;;;;;27.54;41.69;101410.56;5031569;28;20208;-66
2022/07/12 10:53:50;;;;;;;0.80;0.63;;;;;;;27.56;40.84;101400.25;5031035;28;20568;-67
2022/07/12 10:56:24;;;;;;;1.13;0.70;;;;;;;27.56;40.59;101409.25;5031159;28;20224;-68
2022/07/12 10:58:59;;;;;;;2.35;0.57;;;;;;;27.61;41.13;101408.56;5011968;28;20201;-66
2022/07/12 11:01:29;;;;;;;2.85;0.77;;;;;;;27.79;41.27;101421.22;5013566;28;20252;-67
2022/07/12 11:04:06;;;;;;;2.40;0.70;;;;;;;27.92;41.02;101421.78;5018305;28;20201;-67
2022/07/12 11:06:38;;;;;;;6.35;1.90;;;;;;;27.70;40.16;101418.03;5013502;28;20564;-66
2022/07/12 11:09:08;;;;;;;5.00;1.60;;;;;;;27.60;40.24;101434.16;5009873;28;20239;-66
2022/07/12 11:11:43;;;;;;;3.03;0.90;;;;;;;27.72;40.07;101421.34;5010890;28;20217;-65
2022/07/12 11:14:11;;;;;;;1.65;0.90;;;;;;;27.84;39.83;101413.97;5010784;28;20841;-66
2022/07/12 11:16:44;;;;;;;1.60;0.80;;;;;;;27.99;40.07;101418.91;5010688;28;20316;-66
2022/07/12 11:19:12;;;;;;;1.42;0.85;;;;;;;28.07;39.59;101405.75;5010599;28;20223;-66
2022/07/12 11:21:44;;;;;;;1.92;1.00;;;;;;;28.06;40.15;101412.25;5011222;28;20236;-67
2022/07/12 11:24:18;;;;;;;1.90;0.80;;;;;;;28.30;40.25;101413.06;5009706;28;20217;-66
2022/07/12 11:26:47;;;;;;;1.95;0.90;;;;;;;28.42;39.83;101404.81;5010548;28;20243;-66
2022/07/12 11:29:15;;;;;;;5.15;1.88;;;;;;;28.33;38.33;101406.28;5010607;28;20206;-66
2022/07/12 11:31:43;;;;;;;1.00;0.70;;;;;;;28.41;39.04;101405.88;5011085;28;20253;-66
2022/07/12 11:34:20;;;;;;;2.03;0.93;;;;;;;28.43;39.08;101409.22;5010097;28;20217;-65
2022/07/12 11:36:52;;;;;;;3.55;0.93;;;;;;;28.62;38.24;101399.75;5010510;28;20217;-65
2022/07/12 11:39:31;;;;;;;3.75;1.10;;;;;;;28.59;37.03;101402.13;5010527;28;20252;-66
2022/07/12 11:42:00;;;;;;;6.57;1.40;;;;;;;28.66;37.39;101398.22;5002119;28;20210;-66
2022/07/12 11:44:44;;;;;;;4.72;1.45;;;;;;;28.59;37.64;101394.78;5023732;28;20209;-65